createdAt,value
2022-12-12T00:01:27.983Z,1.60
2022-12-12T00:03:56.000Z,1.60
2022-12-12T00:06:24.778Z,1.70
2022-12-12T00:08:53.573Z,1.70
2022-12-12T00:11:22.284Z,1.60
2022-12-12T00:13:55.787Z,1.60
2022-12-12T00:16:24.521Z,1.50
2022-12-12T00:18:52.493Z,1.50
2022-12-12T00:21:22.920Z,1.40
2022-12-12T00:23:51.829Z,1.40
2022-12-12T00:26:22.372Z,1.30
2022-12-12T00:28:52.070Z,1.30
2022-12-12T00:31:20.383Z,1.20
2022-12-12T00:33:50.147Z,1.10
2022-12-12T00:36:19.972Z,1.10
2022-12-12T00:38:51.575Z,1.00
2022-12-12T00:41:19.883Z,0.90
2022-12-12T00:43:48.586Z,0.90
2022-12-12T00:46:20.218Z,0.80
2022-12-12T00:48:48.511Z,0.70
2022-12-12T00:51:19.843Z,0.70
2022-12-12T00:53:48.761Z,0.50
2022-12-12T00:56:17.607Z,0.50
2022-12-12T00:58:45.780Z,0.30
2022-12-12T01:01:18.093Z,0.20
2022-12-12T01:03:47.985Z,0.20
2022-12-12T01:06:16.366Z,0.10
2022-12-12T01:08:48.077Z,0.00
2022-12-12T01:11:16.673Z,-0.10
2022-12-12T01:13:45.126Z,-0.10
2022-12-12T01:16:13.794Z,-0.20
2022-12-12T01:18:42.791Z,-0.30
2022-12-12T01:21:14.438Z,-0.40
2022-12-12T01:23:43.042Z,-0.40
2022-12-12T01:26:15.352Z,-0.40
2022-12-12T01:28:43.661Z,-0.40
2022-12-12T01:31:13.515Z,-0.40
2022-12-12T01:33:45.928Z,-0.40
2022-12-12T01:36:16.576Z,-0.40
2022-12-12T01:38:47.772Z,-0.40
2022-12-12T01:41:17.048Z,-0.40
2022-12-12T01:43:45.511Z,-0.40
2022-12-12T01:46:40.419Z,-0.40
2022-12-12T01:49:14.479Z,-0.40
2022-12-12T01:51:44.779Z,-0.40
2022-12-12T01:54:16.562Z,-0.40
2022-12-12T01:56:46.509Z,-0.40
2022-12-12T01:59:17.310Z,-0.40
2022-12-12T02:01:46.567Z,-0.40
2022-12-12T02:04:16.030Z,-0.40
2022-12-12T02:06:50.353Z,-0.50
2022-12-12T02:09:18.920Z,-0.50
2022-12-12T02:11:50.142Z,-0.50
2022-12-12T02:14:22.159Z,-0.50
2022-12-12T02:17:05.650Z,-0.50
2022-12-12T02:19:59.799Z,-0.60
2022-12-12T02:22:43.880Z,-0.60
2022-12-12T02:25:44.016Z,-0.70
2022-12-12T02:28:55.360Z,-0.60
2022-12-12T02:31:31.808Z,-0.70
2022-12-12T02:34:05.168Z,-0.70
2022-12-12T02:36:44.208Z,-0.70
2022-12-12T02:39:18.590Z,-0.80
2022-12-12T02:41:52.357Z,-0.80
2022-12-12T02:44:27.291Z,-0.80
2022-12-12T02:47:03.309Z,-0.90
2022-12-12T02:49:36.082Z,-0.90
2022-12-12T02:52:05.685Z,-0.90
2022-12-12T02:54:34.777Z,-0.80
2022-12-12T02:57:04.208Z,-0.80
2022-12-12T02:59:35.189Z,-0.70
2022-12-12T03:02:27.572Z,-0.60
2022-12-12T03:05:27.081Z,-0.60
2022-12-12T03:08:09.062Z,-0.50
2022-12-12T03:10:49.063Z,-0.40
2022-12-12T03:13:31.315Z,-0.30
2022-12-12T03:16:11.480Z,-0.20
2022-12-12T03:18:47.698Z,-0.20
2022-12-12T03:21:24.175Z,0.00
2022-12-12T03:23:58.490Z,0.10
2022-12-12T03:26:31.487Z,0.20
2022-12-12T03:29:06.877Z,0.30
2022-12-12T03:31:40.385Z,0.40
2022-12-12T03:34:16.212Z,0.40
2022-12-12T03:36:49.516Z,0.50
2022-12-12T03:39:21.899Z,0.50
2022-12-12T03:41:56.679Z,0.50
2022-12-12T03:44:30.807Z,0.50
2022-12-12T03:47:02.815Z,0.50
2022-12-12T03:49:40.366Z,0.60
2022-12-12T03:52:15.284Z,0.60
2022-12-12T03:54:49.656Z,0.60
2022-12-12T03:57:23.524Z,0.60
2022-12-12T03:59:55.953Z,0.60
2022-12-12T04:02:27.011Z,0.60
2022-12-12T04:05:05.214Z,0.70
2022-12-12T04:07:36.964Z,0.60
2022-12-12T04:10:23.025Z,0.60
2022-12-12T04:13:03.444Z,0.70
2022-12-12T04:15:47.207Z,0.70
2022-12-12T04:18:23.236Z,0.70
2022-12-12T04:21:23.461Z,0.70
2022-12-12T04:24:06.201Z,0.70
2022-12-12T04:26:39.554Z,0.70
2022-12-12T04:29:34.605Z,0.80
2022-12-12T04:32:12.876Z,0.80
2022-12-12T04:34:47.244Z,0.80
2022-12-12T04:37:22.420Z,0.80
2022-12-12T04:39:53.132Z,0.70
2022-12-12T04:42:27.641Z,0.80
2022-12-12T04:45:01.432Z,0.70
2022-12-12T04:47:32.076Z,0.70
2022-12-12T04:50:02.149Z,0.70
2022-12-12T04:52:34.312Z,0.70
2022-12-12T04:55:06.837Z,0.70
2022-12-12T04:57:35.505Z,0.50
2022-12-12T05:00:04.398Z,0.50
2022-12-12T05:02:38.758Z,0.50
2022-12-12T05:05:12.820Z,0.40
2022-12-12T05:07:45.852Z,0.40
2022-12-12T05:10:16.265Z,0.40
2022-12-12T05:12:46.325Z,0.40
2022-12-12T05:15:14.976Z,0.40
2022-12-12T05:17:46.880Z,0.50
2022-12-12T05:20:16.119Z,0.60
2022-12-12T05:22:45.657Z,0.50
2022-12-12T05:25:15.119Z,0.40
2022-12-12T05:27:43.590Z,0.40
2022-12-12T05:30:13.003Z,0.40
2022-12-12T05:32:41.347Z,0.40
2022-12-12T05:35:11.918Z,0.40
2022-12-12T05:37:42.779Z,0.30
2022-12-12T05:40:15.367Z,0.30
2022-12-12T05:42:43.542Z,0.40
2022-12-12T05:45:12.687Z,0.40
2022-12-12T05:47:41.405Z,0.40
2022-12-12T05:50:09.869Z,0.40
2022-12-12T05:52:38.293Z,0.30
2022-12-12T05:55:07.629Z,0.30
2022-12-12T05:57:37.187Z,0.30
2022-12-12T06:00:06.610Z,0.30
2022-12-12T06:02:34.949Z,0.30
2022-12-12T06:05:03.015Z,0.30
2022-12-12T06:07:30.969Z,0.30
2022-12-12T06:09:58.850Z,0.30
2022-12-12T06:12:27.017Z,0.40
2022-12-12T06:14:56.357Z,0.40
2022-12-12T06:17:27.158Z,0.40
2022-12-12T06:19:59.408Z,0.30
2022-12-12T06:22:28.499Z,0.30
2022-12-12T06:24:56.426Z,0.40
2022-12-12T06:27:24.307Z,0.40
2022-12-12T06:29:52.197Z,0.40
2022-12-12T06:32:21.586Z,0.50
2022-12-12T06:34:49.614Z,0.40
2022-12-12T06:37:17.669Z,0.50
2022-12-12T06:39:46.132Z,0.50
2022-12-12T06:42:22.380Z,0.50
2022-12-12T06:44:52.399Z,0.40
2022-12-12T06:47:21.781Z,0.40
2022-12-12T06:49:49.790Z,0.40
2022-12-12T06:52:17.723Z,0.40
2022-12-12T06:54:46.373Z,0.40
2022-12-12T06:57:14.343Z,0.40
2022-12-12T06:59:42.326Z,0.40
2022-12-12T07:02:13.840Z,0.40
2022-12-12T07:04:45.215Z,0.40
2022-12-12T07:07:13.176Z,0.40
2022-12-12T07:09:41.146Z,0.30
2022-12-12T07:12:09.119Z,0.30
2022-12-12T07:14:40.496Z,0.30
2022-12-12T07:17:08.475Z,0.30
2022-12-12T07:19:37.490Z,0.30
2022-12-12T07:22:10.253Z,0.30
2022-12-12T07:24:38.803Z,0.30
2022-12-12T07:27:07.791Z,0.30
2022-12-12T07:29:36.083Z,0.30
2022-12-12T07:32:04.212Z,0.30
2022-12-12T07:34:32.494Z,0.40
2022-12-12T07:37:03.143Z,0.40
2022-12-12T07:39:33.296Z,0.30
2022-12-12T07:42:01.290Z,0.40
2022-12-12T07:44:29.223Z,0.30
2022-12-12T07:46:59.059Z,0.30
2022-12-12T07:49:27.307Z,0.40
2022-12-12T07:51:55.281Z,0.30
2022-12-12T07:54:23.343Z,0.40
2022-12-12T07:56:52.652Z,0.40
2022-12-12T07:59:20.629Z,0.40
2022-12-12T08:01:48.604Z,0.40
2022-12-12T08:04:19.623Z,0.40
2022-12-12T08:06:49.978Z,0.40
2022-12-12T08:09:21.351Z,0.40
2022-12-12T08:11:49.220Z,0.40
2022-12-12T08:14:18.678Z,0.40
2022-12-12T08:16:46.611Z,0.30
2022-12-12T08:19:14.496Z,0.40
2022-12-12T08:21:42.977Z,0.40
2022-12-12T08:24:12.941Z,0.40
2022-12-12T08:26:40.909Z,0.30
2022-12-12T08:29:08.957Z,0.40
2022-12-12T08:31:40.193Z,0.40
2022-12-12T08:34:08.416Z,0.40
2022-12-12T08:36:37.551Z,0.50
2022-12-12T08:39:08.035Z,0.40
2022-12-12T08:41:37.857Z,0.30
2022-12-12T08:44:06.146Z,0.40
2022-12-12T08:46:34.121Z,0.40
2022-12-12T08:49:03.488Z,0.40
2022-12-12T08:51:31.576Z,0.40
2022-12-12T08:53:59.517Z,0.30
2022-12-12T08:56:27.812Z,0.40
2022-12-12T08:58:55.737Z,0.40
2022-12-12T09:01:31.748Z,0.40
2022-12-12T09:04:00.602Z,0.50
2022-12-12T09:06:31.267Z,0.50
2022-12-12T09:08:59.444Z,0.50
2022-12-12T09:11:27.782Z,0.60
2022-12-12T09:13:55.937Z,0.60
2022-12-12T09:16:26.524Z,0.70
2022-12-12T09:18:54.647Z,0.80
2022-12-12T09:21:23.131Z,0.60
2022-12-12T09:23:54.815Z,0.60
2022-12-12T09:26:22.961Z,0.70
2022-12-12T09:28:53.995Z,0.60
2022-12-12T09:31:22.600Z,0.70
2022-12-12T09:33:52.396Z,0.80
2022-12-12T09:36:21.068Z,1.00
2022-12-12T09:38:52.410Z,1.10
2022-12-12T09:41:27.080Z,1.20
2022-12-12T09:43:58.719Z,1.40
2022-12-12T09:46:32.498Z,1.20
2022-12-12T09:49:13.669Z,1.20
2022-12-12T09:51:47.225Z,1.20
2022-12-12T09:54:17.569Z,1.30
2022-12-12T09:56:58.852Z,1.50
2022-12-12T09:59:36.119Z,1.60
2022-12-12T10:02:19.731Z,1.80
2022-12-12T10:04:59.498Z,1.80
2022-12-12T10:07:36.873Z,1.60
2022-12-12T10:10:13.898Z,1.50
2022-12-12T10:12:47.716Z,1.50
2022-12-12T10:15:28.093Z,1.40
2022-12-12T10:17:57.965Z,1.40
2022-12-12T10:20:30.817Z,1.50
2022-12-12T10:23:08.418Z,1.60
2022-12-12T10:25:44.384Z,1.70
2022-12-12T10:28:19.869Z,1.70
2022-12-12T10:31:06.302Z,1.70
2022-12-12T10:33:46.528Z,1.90
2022-12-12T10:36:25.602Z,2.00
2022-12-12T10:39:18.176Z,2.30
2022-12-12T10:41:51.683Z,3.00
2022-12-12T10:44:34.916Z,3.70
2022-12-12T10:47:06.580Z,4.00
2022-12-12T10:49:35.508Z,4.40
2022-12-12T10:52:12.613Z,5.00
2022-12-12T10:54:46.253Z,5.80
2022-12-12T10:57:20.162Z,6.60
2022-12-12T10:59:51.304Z,6.60
2022-12-12T11:02:38.594Z,6.50
2022-12-12T11:05:17.347Z,6.30
2022-12-12T11:07:48.424Z,6.10
2022-12-12T11:10:30.586Z,6.30
2022-12-12T11:13:04.277Z,6.90
2022-12-12T11:15:40.563Z,7.80
2022-12-12T11:18:14.789Z,9.20
2022-12-12T11:20:47.001Z,9.50
2022-12-12T11:23:20.255Z,9.10
2022-12-12T11:25:56.255Z,8.20
2022-12-12T11:28:27.852Z,7.00
2022-12-12T11:30:57.896Z,6.80
2022-12-12T11:33:31.921Z,7.30
2022-12-12T11:36:01.808Z,7.50
2022-12-12T11:38:36.695Z,7.90
2022-12-12T11:41:07.781Z,7.60
2022-12-12T11:43:37.957Z,7.30
2022-12-12T11:46:19.833Z,7.20
2022-12-12T11:48:57.883Z,7.30
2022-12-12T11:51:35.564Z,7.40
2022-12-12T11:54:11.630Z,7.10
2022-12-12T11:56:49.691Z,6.80
2022-12-12T11:59:45.810Z,6.70
2022-12-12T12:03:00.727Z,6.90
2022-12-12T12:05:35.812Z,6.80
2022-12-12T12:08:17.282Z,6.80
2022-12-12T12:10:57.096Z,6.50
2022-12-12T12:13:41.198Z,6.40
2022-12-12T12:16:17.690Z,7.30
2022-12-12T12:19:01.245Z,9.00
2022-12-12T12:21:33.598Z,9.60
2022-12-12T12:24:33.653Z,8.90
2022-12-12T12:27:09.036Z,7.90
2022-12-12T12:30:14.336Z,6.90
2022-12-12T12:32:58.312Z,6.50
2022-12-12T12:35:31.613Z,6.10
2022-12-12T12:38:15.439Z,6.00
2022-12-12T12:40:55.784Z,5.60
2022-12-12T12:43:41.884Z,5.40
2022-12-12T12:46:16.378Z,4.90
2022-12-12T12:48:47.974Z,4.60
2022-12-12T12:51:21.936Z,4.40
2022-12-12T12:53:56.834Z,4.20
2022-12-12T12:56:28.854Z,4.00
2022-12-12T12:59:00.326Z,3.80
2022-12-12T13:01:33.081Z,3.70
2022-12-12T13:04:06.434Z,3.70
2022-12-12T13:06:43.763Z,3.70
2022-12-12T13:09:25.610Z,3.60
2022-12-12T13:11:59.496Z,3.60
2022-12-12T13:14:47.507Z,3.60
2022-12-12T13:17:23.570Z,3.60
2022-12-12T13:19:54.782Z,3.60
2022-12-12T13:22:34.443Z,3.50
2022-12-12T13:25:11.124Z,3.50
2022-12-12T13:27:46.051Z,3.50
2022-12-12T13:30:23.209Z,3.40
2022-12-12T13:33:35.747Z,3.30
2022-12-12T13:36:13.979Z,3.30
2022-12-12T13:38:50.447Z,3.20
2022-12-12T13:41:22.743Z,3.20
2022-12-12T13:43:59.592Z,3.30
2022-12-12T13:46:41.566Z,3.40
2022-12-12T13:49:23.657Z,3.50
2022-12-12T13:51:51.666Z,3.60
2022-12-12T13:54:48.101Z,3.70
2022-12-12T13:57:23.551Z,3.70
2022-12-12T14:00:19.198Z,3.70
2022-12-12T14:03:01.971Z,3.80
2022-12-12T14:05:33.828Z,3.90
2022-12-12T14:08:06.743Z,4.00
2022-12-12T14:10:39.157Z,4.00
2022-12-12T14:13:43.569Z,4.00
2022-12-12T14:16:22.349Z,4.00
2022-12-12T14:19:04.262Z,3.70
2022-12-12T14:21:42.543Z,3.70
2022-12-12T14:25:02.720Z,3.60
2022-12-12T14:28:04.107Z,3.40
2022-12-12T14:30:57.316Z,3.20
2022-12-12T14:33:52.667Z,3.10
2022-12-12T14:37:03.209Z,3.00
2022-12-12T14:39:51.099Z,3.00
2022-12-12T14:43:21.414Z,2.80
2022-12-12T14:45:29.624Z,2.80
2022-12-12T14:48:28.719Z,2.70
2022-12-12T14:51:02.139Z,2.50
2022-12-12T14:53:34.913Z,2.30
2022-12-12T14:56:08.128Z,2.20
2022-12-12T14:58:41.358Z,2.20
2022-12-12T15:01:11.122Z,2.10
2022-12-12T15:03:46.146Z,2.00
2022-12-12T15:06:28.051Z,1.90
2022-12-12T15:08:57.643Z,1.90
2022-12-12T15:11:31.523Z,1.90
2022-12-12T15:14:00.879Z,1.80
2022-12-12T15:16:35.601Z,1.80
2022-12-12T15:19:04.151Z,1.80
2022-12-12T15:21:33.179Z,1.70
2022-12-12T15:24:01.304Z,1.70
2022-12-12T15:26:30.141Z,1.60
2022-12-12T15:28:58.545Z,1.60
2022-12-12T15:31:30.990Z,1.50
2022-12-12T15:33:58.965Z,1.40
2022-12-12T15:36:29.269Z,1.30
2022-12-12T15:39:13.932Z,1.20
2022-12-12T15:41:42.424Z,1.20
2022-12-12T15:44:17.367Z,1.00
2022-12-12T15:46:48.110Z,1.00
2022-12-12T15:49:38.920Z,0.90
2022-12-12T15:52:19.527Z,0.80
2022-12-12T15:54:50.359Z,0.60
2022-12-12T15:57:21.122Z,0.50
2022-12-12T15:59:55.449Z,0.50
2022-12-12T16:02:28.263Z,0.50
2022-12-12T16:05:04.503Z,0.40
2022-12-12T16:07:36.619Z,0.40
2022-12-12T16:10:22.179Z,0.40
2022-12-12T16:15:57.107Z,0.30
2022-12-12T16:18:42.259Z,0.20
2022-12-12T16:21:10.835Z,0.20
2022-12-12T16:23:42.487Z,0.10
2022-12-12T16:26:11.482Z,0.10
2022-12-12T16:28:39.556Z,0.10
2022-12-12T16:31:16.090Z,0.10
2022-12-12T16:33:46.316Z,0.00
2022-12-12T16:36:16.155Z,0.00
2022-12-12T16:38:44.559Z,-0.10
2022-12-12T16:41:15.047Z,-0.20
2022-12-12T16:43:43.369Z,-0.30
2022-12-12T16:46:19.707Z,-0.30
2022-12-12T16:48:56.757Z,-0.20
2022-12-12T16:51:28.816Z,-0.30
2022-12-12T16:53:56.954Z,-0.40
2022-12-12T16:56:25.312Z,-0.40
2022-12-12T16:58:56.078Z,-0.40
2022-12-12T17:01:24.275Z,-0.50
2022-12-12T17:03:53.707Z,-0.50
2022-12-12T17:06:21.737Z,-0.60
2022-12-12T17:08:49.700Z,-0.60
2022-12-12T17:11:17.795Z,-0.60
2022-12-12T17:13:48.327Z,-0.60
2022-12-12T17:16:16.713Z,-0.60
2022-12-12T17:18:44.689Z,-0.60
2022-12-12T17:21:14.038Z,-0.70
2022-12-12T17:23:42.231Z,-0.70
2022-12-12T17:26:11.437Z,-0.70
2022-12-12T17:28:39.472Z,-0.70
2022-12-12T17:31:09.264Z,-0.70
2022-12-12T17:33:49.621Z,-0.70
2022-12-12T17:36:20.170Z,-0.80
2022-12-12T17:38:48.440Z,-0.80
2022-12-12T17:41:16.575Z,-0.80
2022-12-12T17:43:44.470Z,-0.90
2022-12-12T17:46:15.102Z,-0.90
2022-12-12T17:48:45.986Z,-0.90
2022-12-12T17:51:15.709Z,-0.90
2022-12-12T17:53:45.626Z,-0.90
2022-12-12T17:56:15.041Z,-0.90
2022-12-12T17:58:45.529Z,-0.90
2022-12-12T18:01:16.095Z,-1.00
2022-12-12T18:03:46.502Z,-1.00
2022-12-12T18:06:15.457Z,-1.10
2022-12-12T18:08:45.626Z,-1.10
2022-12-12T18:11:15.390Z,-1.10
2022-12-12T18:13:43.983Z,-1.10
2022-12-12T18:16:14.323Z,-1.10
2022-12-12T18:18:43.250Z,-1.10
2022-12-12T18:21:23.747Z,-1.10
2022-12-12T18:24:03.935Z,-1.10
2022-12-12T18:26:31.859Z,-1.20
2022-12-12T18:29:01.072Z,-1.10
2022-12-12T18:31:29.398Z,-1.20
2022-12-12T18:33:58.249Z,-1.20
2022-12-12T18:36:28.312Z,-1.20
2022-12-12T18:38:56.941Z,-1.20
2022-12-12T18:41:27.336Z,-1.20
2022-12-12T18:43:57.171Z,-1.20
2022-12-12T18:46:27.250Z,-1.20
2022-12-12T18:48:55.248Z,-1.20
2022-12-12T18:51:25.640Z,-1.20
2022-12-12T18:53:56.071Z,-1.30
2022-12-12T18:56:27.465Z,-1.30
2022-12-12T18:58:56.010Z,-1.30
2022-12-12T19:01:26.875Z,-1.30
2022-12-12T19:03:57.701Z,-1.30
2022-12-12T19:06:28.638Z,-1.40
2022-12-12T19:08:56.876Z,-1.40
2022-12-12T19:11:28.829Z,-1.50
2022-12-12T19:13:58.540Z,-1.50
2022-12-12T19:16:26.686Z,-1.50
2022-12-12T19:18:55.248Z,-1.50
2022-12-12T19:21:28.193Z,-1.60
2022-12-12T19:23:56.619Z,-1.60
2022-12-12T19:26:27.782Z,-1.60
2022-12-12T19:28:58.725Z,-1.60
2022-12-12T19:31:26.913Z,-1.60
2022-12-12T19:33:55.543Z,-1.60
2022-12-12T19:36:29.454Z,-1.60
2022-12-12T19:38:59.221Z,-1.60
2022-12-12T19:41:27.746Z,-1.70
2022-12-12T19:43:57.647Z,-1.70
2022-12-12T19:46:29.898Z,-1.70
2022-12-12T19:48:59.282Z,-1.80
2022-12-12T19:51:29.329Z,-1.80
2022-12-12T19:53:59.426Z,-1.80
2022-12-12T19:56:30.041Z,-1.80
2022-12-12T19:58:59.044Z,-1.80
2022-12-12T20:01:30.178Z,-1.80
2022-12-12T20:04:01.174Z,-1.90
2022-12-12T20:06:29.724Z,-1.90
2022-12-12T20:09:00.065Z,-2.00
2022-12-12T20:11:28.426Z,-1.90
2022-12-12T20:13:58.756Z,-1.90
2022-12-12T20:16:29.523Z,-1.90
2022-12-12T20:18:58.759Z,-1.90
2022-12-12T20:22:10.701Z,-2.00
2022-12-12T20:24:17.807Z,-2.00
2022-12-12T20:26:46.472Z,-2.00
2022-12-12T20:29:18.609Z,-2.00
2022-12-12T20:31:48.473Z,-2.00
2022-12-12T20:34:21.230Z,-2.00
2022-12-12T20:36:50.344Z,-2.10
2022-12-12T20:39:21.895Z,-2.10
2022-12-12T20:41:51.472Z,-2.20
2022-12-12T20:44:19.699Z,-2.20
2022-12-12T20:46:49.173Z,-2.20
2022-12-12T20:49:19.319Z,-2.20
2022-12-12T20:51:57.031Z,-2.20
2022-12-12T20:54:26.437Z,-2.20
2022-12-12T20:56:55.265Z,-2.20
2022-12-12T20:59:23.666Z,-2.30
2022-12-12T21:01:53.844Z,-2.30
2022-12-12T21:04:22.481Z,-2.30
2022-12-12T21:06:51.531Z,-2.30
2022-12-12T21:09:24.992Z,-2.30
2022-12-12T21:12:04.840Z,-2.40
2022-12-12T21:14:35.140Z,-2.30
2022-12-12T21:17:04.962Z,-2.40
2022-12-12T21:19:32.974Z,-2.30
2022-12-12T21:22:00.950Z,-2.40
2022-12-12T21:24:28.924Z,-2.40
2022-12-12T21:26:56.932Z,-2.50
2022-12-12T21:29:25.032Z,-2.40
2022-12-12T21:31:53.143Z,-2.50
2022-12-12T21:34:24.273Z,-2.50
2022-12-12T21:36:53.727Z,-2.40
2022-12-12T21:39:23.385Z,-2.50
2022-12-12T21:41:51.778Z,-2.50
2022-12-12T21:44:20.457Z,-2.50
2022-12-12T21:46:48.817Z,-2.50
2022-12-12T21:49:30.786Z,-2.40
2022-12-12T21:52:01.897Z,-2.40
2022-12-12T21:54:30.901Z,-2.50
2022-12-12T21:57:00.388Z,-2.50
2022-12-12T21:59:30.113Z,-2.50
2022-12-12T22:02:00.156Z,-2.50
2022-12-12T22:04:28.865Z,-2.50
2022-12-12T22:06:58.076Z,-2.50
2022-12-12T22:09:27.657Z,-2.60
2022-12-12T22:12:03.342Z,-2.60
2022-12-12T22:14:33.579Z,-2.50
2022-12-12T22:17:01.965Z,-2.60
2022-12-12T22:19:30.179Z,-2.50
2022-12-12T22:21:58.313Z,-2.50
2022-12-12T22:24:27.824Z,-2.50
2022-12-12T22:26:55.852Z,-2.50
2022-12-12T22:29:25.699Z,-2.60
2022-12-12T22:31:53.834Z,-2.60
2022-12-12T22:34:23.674Z,-2.60
2022-12-12T22:36:52.411Z,-2.60
2022-12-12T22:39:25.331Z,-2.60
2022-12-12T22:41:55.195Z,-2.60
2022-12-12T22:44:24.751Z,-2.50
2022-12-12T22:46:54.495Z,-2.50
2022-12-12T22:49:26.712Z,-2.60
2022-12-12T22:51:58.495Z,-2.60
2022-12-12T22:54:26.971Z,-2.60
2022-12-12T22:56:56.281Z,-2.70
2022-12-12T22:59:24.292Z,-2.70
2022-12-12T23:01:52.318Z,-2.80
2022-12-12T23:04:20.435Z,-2.80
2022-12-12T23:06:48.812Z,-2.80
2022-12-12T23:09:18.754Z,-2.80
2022-12-12T23:11:46.940Z,-2.80
2022-12-12T23:14:18.270Z,-2.80
2022-12-12T23:16:47.304Z,-2.80
2022-12-12T23:19:17.889Z,-2.80
2022-12-12T23:21:46.763Z,-2.80
2022-12-12T23:24:15.356Z,-2.70
2022-12-12T23:26:44.150Z,-2.80
2022-12-12T23:29:16.772Z,-2.80
2022-12-12T23:31:46.164Z,-2.80
2022-12-12T23:34:17.581Z,-2.80
2022-12-12T23:36:45.483Z,-2.70
2022-12-12T23:39:14.185Z,-2.70
2022-12-12T23:41:42.812Z,-2.70
2022-12-12T23:44:13.651Z,-2.70
2022-12-12T23:46:42.050Z,-2.70
2022-12-12T23:49:16.198Z,-2.70
2022-12-12T23:51:49.162Z,-2.80
2022-12-12T23:54:20.259Z,-2.70
2022-12-12T23:56:49.118Z,-2.80
2022-12-12T23:59:18.578Z,-2.80
